createdAt,value
2023-03-11T00:04:31.382Z,9.08
2023-03-11T00:09:35.304Z,9.05
2023-03-11T00:14:38.210Z,9.02
2023-03-11T00:19:41.182Z,9.03
2023-03-11T00:24:44.110Z,9.03
2023-03-11T00:29:47.127Z,9.01
2023-03-11T00:34:50.148Z,9.08
2023-03-11T00:39:53.440Z,9.13
2023-03-11T00:44:57.023Z,9.16
2023-03-11T00:50:00.366Z,9.19
2023-03-11T00:55:03.630Z,9.17
2023-03-11T01:00:11.628Z,9.14
2023-03-11T01:05:15.299Z,9.09
2023-03-11T01:10:18.894Z,8.99
2023-03-11T01:15:40.124Z,8.91
2023-03-11T01:20:43.547Z,8.79
2023-03-11T01:25:46.448Z,8.75
2023-03-11T01:30:49.495Z,8.72
2023-03-11T01:35:53.068Z,8.68
2023-03-11T01:40:56.617Z,8.60
2023-03-11T01:46:02.178Z,8.54
2023-03-11T01:51:07.231Z,8.43
2023-03-11T01:56:10.664Z,8.36
2023-03-11T02:01:13.687Z,8.33
2023-03-11T02:06:22.032Z,8.36
2023-03-11T02:11:29.819Z,8.38
2023-03-11T02:16:33.291Z,8.40
2023-03-11T02:21:36.528Z,8.48
2023-03-11T02:26:57.500Z,8.48
2023-03-11T02:32:06.350Z,8.46
2023-03-11T02:37:12.920Z,8.47
2023-03-11T02:42:27.240Z,8.48
2023-03-11T02:47:30.810Z,8.47
2023-03-11T02:52:35.819Z,8.45
2023-03-11T02:57:39.240Z,8.43
2023-03-11T03:02:44.015Z,8.43
2023-03-11T03:07:48.904Z,8.40
2023-03-11T03:12:52.033Z,8.41
2023-03-11T03:17:54.955Z,8.41
2023-03-11T03:22:57.811Z,8.42
2023-03-11T03:28:00.739Z,8.45
2023-03-11T03:33:04.279Z,8.49
2023-03-11T03:38:07.268Z,8.45
2023-03-11T03:43:10.869Z,8.39
2023-03-11T03:48:14.047Z,8.31
2023-03-11T03:53:17.227Z,8.18
2023-03-11T03:58:20.492Z,8.07
2023-03-11T04:03:24.240Z,7.96
2023-03-11T04:08:27.359Z,7.88
2023-03-11T04:13:30.435Z,7.78
2023-03-11T04:18:35.234Z,7.65
2023-03-11T04:23:38.538Z,7.58
2023-03-11T04:28:41.757Z,7.45
2023-03-11T04:33:44.738Z,7.33
2023-03-11T04:38:47.732Z,7.24
2023-03-11T04:43:50.710Z,7.17
2023-03-11T04:48:53.722Z,7.08
2023-03-11T04:53:57.090Z,6.98
2023-03-11T04:59:01.036Z,6.88
2023-03-11T05:04:04.257Z,6.78
2023-03-11T05:09:07.154Z,6.65
2023-03-11T05:14:10.140Z,6.50
2023-03-11T05:19:42.306Z,6.26
2023-03-11T05:24:46.958Z,6.04
2023-03-11T05:29:49.931Z,5.87
2023-03-11T05:34:52.904Z,5.75
2023-03-11T05:39:55.940Z,5.58
2023-03-11T05:44:59.387Z,5.43
2023-03-11T05:50:02.734Z,5.29
2023-03-11T05:55:06.324Z,5.15
2023-03-11T06:00:13.896Z,5.04
2023-03-11T06:05:17.165Z,4.96
2023-03-11T06:10:20.261Z,4.89
2023-03-11T06:15:23.176Z,4.83
2023-03-11T06:20:26.544Z,4.81
2023-03-11T06:25:29.477Z,4.76
2023-03-11T06:30:32.252Z,4.71
2023-03-11T06:35:35.318Z,4.64
2023-03-11T06:40:38.441Z,4.61
2023-03-11T06:45:41.667Z,4.61
2023-03-11T06:50:44.970Z,4.55
2023-03-11T06:56:20.005Z,4.53
2023-03-11T07:01:25.772Z,4.53
2023-03-11T07:06:29.301Z,4.55
2023-03-11T07:11:32.343Z,4.59
2023-03-11T07:16:35.549Z,4.63
2023-03-11T07:21:39.365Z,4.62
2023-03-11T07:26:44.302Z,4.53
2023-03-11T07:31:47.809Z,4.51
2023-03-11T07:36:50.845Z,4.62
2023-03-11T07:41:53.918Z,4.66
2023-03-11T07:46:57.415Z,4.59
2023-03-11T07:52:00.660Z,4.51
2023-03-11T07:57:03.845Z,4.62
2023-03-11T08:02:07.247Z,4.66
2023-03-11T08:07:10.262Z,4.98
2023-03-11T08:12:13.248Z,5.29
2023-03-11T08:17:16.001Z,5.49
2023-03-11T08:22:19.164Z,6.05
2023-03-11T08:27:22.097Z,6.31
2023-03-11T08:32:25.198Z,6.63
2023-03-11T08:37:31.567Z,6.96
2023-03-11T08:42:37.083Z,7.30
2023-03-11T08:47:40.967Z,6.60
2023-03-11T08:52:44.599Z,6.37
2023-03-11T08:57:47.603Z,6.65
2023-03-11T09:02:50.714Z,6.43
2023-03-11T09:07:53.976Z,6.12
2023-03-11T09:12:56.711Z,5.89
2023-03-11T09:17:59.828Z,5.85
2023-03-11T09:23:02.741Z,5.76
2023-03-11T09:28:06.083Z,5.69
2023-03-11T09:33:09.490Z,5.83
2023-03-11T09:38:12.473Z,6.06
2023-03-11T09:43:48.665Z,6.03
2023-03-11T09:49:48.233Z,5.72
2023-03-11T09:54:56.232Z,5.44
2023-03-11T10:00:02.217Z,5.69
2023-03-11T10:05:33.285Z,6.06
2023-03-11T10:10:47.391Z,6.29
2023-03-11T10:16:06.575Z,6.33
2023-03-11T10:21:47.778Z,6.70
2023-03-11T10:26:58.369Z,7.13
2023-03-11T10:32:13.060Z,7.05
2023-03-11T10:37:46.569Z,7.18
2023-03-11T10:42:54.157Z,7.44
2023-03-11T10:47:58.249Z,7.46
2023-03-11T10:53:16.390Z,7.25
2023-03-11T10:58:27.900Z,7.39
2023-03-11T11:03:31.384Z,7.71
2023-03-11T11:08:34.618Z,7.94
2023-03-11T11:13:37.595Z,7.98
2023-03-11T11:18:49.439Z,8.14
2023-03-11T11:24:27.457Z,8.23
2023-03-11T11:29:30.623Z,7.71
2023-03-11T11:34:35.340Z,7.16
2023-03-11T11:39:51.930Z,6.97
2023-03-11T11:45:03.507Z,6.81
2023-03-11T11:50:31.991Z,6.57
2023-03-11T11:55:38.587Z,6.40
2023-03-11T12:00:58.316Z,6.42
2023-03-11T12:06:10.773Z,6.69
2023-03-11T12:11:30.400Z,6.86
2023-03-11T12:17:14.205Z,7.31
2023-03-11T12:22:53.991Z,7.60
2023-03-11T12:28:04.900Z,7.65
2023-03-11T12:33:19.136Z,7.15
2023-03-11T12:38:40.820Z,7.02
2023-03-11T12:43:43.564Z,6.89
2023-03-11T12:49:08.931Z,6.77
2023-03-11T12:54:34.343Z,6.63
2023-03-11T13:00:34.931Z,6.40
2023-03-11T13:06:54.116Z,6.13
2023-03-11T13:11:58.060Z,5.94
2023-03-11T13:17:28.293Z,5.97
2023-03-11T13:22:52.194Z,6.32
2023-03-11T13:28:36.934Z,6.69
2023-03-11T13:33:51.842Z,6.76
2023-03-11T13:39:25.019Z,6.47
2023-03-11T13:44:41.178Z,6.33
2023-03-11T13:49:52.466Z,6.31
2023-03-11T13:55:27.954Z,6.21
2023-03-11T14:00:32.389Z,6.02
2023-03-11T14:05:40.199Z,5.93
2023-03-11T14:10:54.056Z,5.98
2023-03-11T14:16:19.954Z,5.99
2023-03-11T14:21:23.616Z,5.99
2023-03-11T14:26:34.198Z,6.02
2023-03-11T14:31:40.652Z,5.98
2023-03-11T14:36:44.368Z,6.10
2023-03-11T14:41:47.852Z,6.33
2023-03-11T14:46:56.164Z,6.10
2023-03-11T14:52:07.359Z,5.92
2023-03-11T14:57:31.600Z,5.73
2023-03-11T15:02:59.059Z,5.51
2023-03-11T15:08:05.058Z,5.45
2023-03-11T15:13:17.941Z,5.47
2023-03-11T15:18:38.274Z,5.43
2023-03-11T15:23:49.013Z,5.29
2023-03-11T15:29:19.744Z,5.13
2023-03-11T15:34:27.948Z,4.99
2023-03-11T15:39:30.814Z,4.84
2023-03-11T15:44:58.731Z,4.74
2023-03-11T15:50:23.489Z,4.67
2023-03-11T15:55:28.093Z,4.63
2023-03-11T16:00:31.327Z,4.59
2023-03-11T16:05:34.315Z,4.57
2023-03-11T16:10:38.341Z,4.51
2023-03-11T16:15:42.957Z,4.47
2023-03-11T16:20:53.079Z,4.44
2023-03-11T16:26:02.342Z,4.40
2023-03-11T16:31:08.667Z,4.32
2023-03-11T16:36:12.128Z,4.19
2023-03-11T16:41:16.344Z,4.09
2023-03-11T16:46:19.797Z,4.01
2023-03-11T16:51:22.769Z,3.94
2023-03-11T16:56:25.772Z,3.89
2023-03-11T17:01:28.989Z,3.85
2023-03-11T17:06:31.985Z,3.78
2023-03-11T17:11:34.829Z,3.70
2023-03-11T17:16:37.895Z,3.63
2023-03-11T17:21:41.053Z,3.57
2023-03-11T17:26:44.142Z,3.45
2023-03-11T17:31:47.534Z,3.41
2023-03-11T17:36:50.596Z,3.38
2023-03-11T17:41:53.667Z,3.36
2023-03-11T17:46:56.955Z,3.34
2023-03-11T17:52:02.612Z,3.32
2023-03-11T17:57:06.337Z,3.32
2023-03-11T18:02:14.349Z,3.29
2023-03-11T18:07:18.725Z,3.23
2023-03-11T18:12:22.021Z,3.21
2023-03-11T18:17:25.039Z,3.19
2023-03-11T18:22:28.120Z,3.13
2023-03-11T18:27:31.059Z,3.15
2023-03-11T18:32:34.277Z,3.15
2023-03-11T18:37:37.148Z,3.14
2023-03-11T18:42:40.149Z,3.12
2023-03-11T18:47:43.174Z,3.08
2023-03-11T18:52:46.174Z,3.02
2023-03-11T18:57:49.093Z,2.97
2023-03-11T19:02:54.189Z,2.89
2023-03-11T19:07:57.141Z,2.82
2023-03-11T19:13:00.332Z,2.76
2023-03-11T19:18:06.914Z,2.72
2023-03-11T19:23:11.533Z,2.69
2023-03-11T19:28:15.522Z,2.65
2023-03-11T19:33:20.032Z,2.57
2023-03-11T19:38:24.130Z,2.48
2023-03-11T19:43:27.569Z,2.37
2023-03-11T19:48:30.750Z,2.33
2023-03-11T19:53:35.959Z,2.31
2023-03-11T19:58:42.848Z,2.28
2023-03-11T20:03:46.216Z,2.22
2023-03-11T20:08:50.535Z,2.11
2023-03-11T20:13:53.500Z,2.03
2023-03-11T20:18:56.505Z,1.95
2023-03-11T20:23:59.409Z,1.82
2023-03-11T20:29:02.471Z,1.78
2023-03-11T20:34:05.610Z,1.74
2023-03-11T20:39:10.577Z,1.69
2023-03-11T20:44:14.627Z,1.67
2023-03-11T20:49:17.468Z,1.60
2023-03-11T20:54:20.580Z,1.55
2023-03-11T20:59:23.630Z,1.49
2023-03-11T21:04:26.921Z,1.45
2023-03-11T21:09:30.229Z,1.38
2023-03-11T21:14:33.235Z,1.38
2023-03-11T21:19:36.362Z,1.29
2023-03-11T21:24:39.098Z,1.24
2023-03-11T21:29:43.923Z,1.20
2023-03-11T21:34:46.895Z,1.19
2023-03-11T21:39:51.482Z,1.16
2023-03-11T21:44:54.976Z,1.14
2023-03-11T21:49:58.117Z,1.14
2023-03-11T21:55:01.158Z,1.13
2023-03-11T22:00:06.885Z,1.14
2023-03-11T22:05:10.673Z,1.14
2023-03-11T22:10:14.007Z,1.15
2023-03-11T22:15:17.331Z,1.13
2023-03-11T22:20:20.551Z,1.09
2023-03-11T22:25:23.622Z,1.06
2023-03-11T22:30:27.603Z,1.02
2023-03-11T22:35:30.945Z,1.00
2023-03-11T22:40:35.425Z,0.95
2023-03-11T22:45:38.546Z,0.89
2023-03-11T22:50:44.501Z,0.79
2023-03-11T22:55:47.597Z,0.73
2023-03-11T23:00:50.433Z,0.66
2023-03-11T23:05:54.176Z,0.62
2023-03-11T23:11:01.005Z,0.58
2023-03-11T23:16:20.987Z,0.56
2023-03-11T23:21:28.656Z,0.53
2023-03-11T23:26:34.449Z,0.48
2023-03-11T23:31:37.469Z,0.43
2023-03-11T23:36:40.700Z,0.40
2023-03-11T23:41:43.688Z,0.36
2023-03-11T23:46:46.689Z,0.36
2023-03-11T23:51:49.678Z,0.34
2023-03-11T23:56:52.597Z,0.31
